sensor_id;sensor_type;location;lat;lon;timestamp;P1;durP1;ratioP1;P2;durP2;ratioP2
19733;SDS011;10018;51.230;7.860;2022-07-09T00:00:06;10.33;;;5.30;;
19733;SDS011;10018;51.230;7.860;2022-07-09T00:02:32;7.23;;;4.63;;
19733;SDS011;10018;51.230;7.860;2022-07-09T00:04:59;7.40;;;4.53;;
19733;SDS011;10018;51.230;7.860;2022-07-09T00:07:25;7.73;;;4.67;;
19733;SDS011;10018;51.230;7.860;2022-07-09T00:09:51;8.87;;;5.63;;
19733;SDS011;10018;51.230;7.860;2022-07-09T00:12:17;9.47;;;4.90;;
19733;SDS011;10018;51.230;7.860;2022-07-09T00:14:42;8.70;;;5.43;;
19733;SDS011;10018;51.230;7.860;2022-07-09T00:17:08;8.37;;;5.40;;
19733;SDS011;10018;51.230;7.860;2022-07-09T00:19:33;9.37;;;5.73;;
19733;SDS011;10018;51.230;7.860;2022-07-09T00:21:59;9.40;;;5.40;;
19733;SDS011;10018;51.230;7.860;2022-07-09T00:24:25;7.37;;;5.50;;
19733;SDS011;10018;51.230;7.860;2022-07-09T00:26:50;7.53;;;5.17;;
19733;SDS011;10018;51.230;7.860;2022-07-09T00:29:16;8.70;;;5.00;;
19733;SDS011;10018;51.230;7.860;2022-07-09T00:31:41;9.63;;;5.77;;
19733;SDS011;10018;51.230;7.860;2022-07-09T00:34:07;8.07;;;5.30;;
19733;SDS011;10018;51.230;7.860;2022-07-09T00:36:32;6.93;;;4.67;;
19733;SDS011;10018;51.230;7.860;2022-07-09T00:38:58;7.47;;;5.10;;
19733;SDS011;10018;51.230;7.860;2022-07-09T00:41:23;7.13;;;5.40;;
19733;SDS011;10018;51.230;7.860;2022-07-09T00:43:49;9.37;;;5.23;;
19733;SDS011;10018;51.230;7.860;2022-07-09T00:46:16;7.70;;;5.03;;
19733;SDS011;10018;51.230;7.860;2022-07-09T00:48:42;9.73;;;4.87;;
19733;SDS011;10018;51.230;7.860;2022-07-09T00:51:14;7.07;;;4.97;;
19733;SDS011;10018;51.230;7.860;2022-07-09T00:53:44;6.33;;;4.57;;
19733;SDS011;10018;51.230;7.860;2022-07-09T00:56:10;8.20;;;5.00;;
19733;SDS011;10018;51.230;7.860;2022-07-09T00:58:37;7.73;;;4.63;;
19733;SDS011;10018;51.230;7.860;2022-07-09T01:01:03;7.73;;;5.10;;
19733;SDS011;10018;51.230;7.860;2022-07-09T01:03:28;6.40;;;4.90;;
19733;SDS011;10018;51.230;7.860;2022-07-09T01:05:54;8.63;;;4.80;;
19733;SDS011;10018;51.230;7.860;2022-07-09T01:08:21;7.83;;;5.23;;
19733;SDS011;10018;51.230;7.860;2022-07-09T01:10:47;7.30;;;5.23;;
19733;SDS011;10018;51.230;7.860;2022-07-09T01:13:16;8.57;;;5.10;;
19733;SDS011;10018;51.230;7.860;2022-07-09T01:15:41;9.57;;;4.77;;
19733;SDS011;10018;51.230;7.860;2022-07-09T01:18:10;7.90;;;5.30;;
19733;SDS011;10018;51.230;7.860;2022-07-09T01:20:36;8.80;;;5.30;;
19733;SDS011;10018;51.230;7.860;2022-07-09T01:23:02;8.47;;;4.67;;
19733;SDS011;10018;51.230;7.860;2022-07-09T01:25:31;6.73;;;5.00;;
19733;SDS011;10018;51.230;7.860;2022-07-09T01:28:01;7.07;;;5.00;;
19733;SDS011;10018;51.230;7.860;2022-07-09T01:30:30;9.97;;;5.10;;
19733;SDS011;10018;51.230;7.860;2022-07-09T01:32:55;6.77;;;4.87;;
19733;SDS011;10018;51.230;7.860;2022-07-09T01:35:21;7.57;;;4.87;;
19733;SDS011;10018;51.230;7.860;2022-07-09T01:37:46;10.07;;;5.40;;
19733;SDS011;10018;51.230;7.860;2022-07-09T01:40:12;7.37;;;5.40;;
19733;SDS011;10018;51.230;7.860;2022-07-09T01:42:38;8.53;;;5.53;;
19733;SDS011;10018;51.230;7.860;2022-07-09T01:45:04;9.93;;;5.30;;
19733;SDS011;10018;51.230;7.860;2022-07-09T01:47:30;9.00;;;5.60;;
19733;SDS011;10018;51.230;7.860;2022-07-09T01:49:55;10.60;;;6.40;;
19733;SDS011;10018;51.230;7.860;2022-07-09T01:52:21;9.37;;;6.30;;
19733;SDS011;10018;51.230;7.860;2022-07-09T01:54:46;9.87;;;6.00;;
19733;SDS011;10018;51.230;7.860;2022-07-09T01:57:12;12.43;;;6.60;;
19733;SDS011;10018;51.230;7.860;2022-07-09T01:59:37;9.43;;;5.90;;
19733;SDS011;10018;51.230;7.860;2022-07-09T02:02:03;9.90;;;6.63;;
19733;SDS011;10018;51.230;7.860;2022-07-09T02:04:30;10.90;;;6.03;;
19733;SDS011;10018;51.230;7.860;2022-07-09T02:06:55;9.53;;;5.60;;
19733;SDS011;10018;51.230;7.860;2022-07-09T02:09:21;10.67;;;5.67;;
19733;SDS011;10018;51.230;7.860;2022-07-09T02:11:47;6.93;;;5.37;;
19733;SDS011;10018;51.230;7.860;2022-07-09T02:14:13;11.33;;;5.70;;
19733;SDS011;10018;51.230;7.860;2022-07-09T02:16:39;7.63;;;5.47;;
19733;SDS011;10018;51.230;7.860;2022-07-09T02:19:04;8.77;;;5.33;;
19733;SDS011;10018;51.230;7.860;2022-07-09T02:21:31;9.10;;;6.23;;
19733;SDS011;10018;51.230;7.860;2022-07-09T02:23:57;8.07;;;5.70;;
19733;SDS011;10018;51.230;7.860;2022-07-09T02:26:24;8.40;;;5.80;;
19733;SDS011;10018;51.230;7.860;2022-07-09T02:28:54;7.53;;;5.60;;
19733;SDS011;10018;51.230;7.860;2022-07-09T02:31:20;11.33;;;6.00;;
19733;SDS011;10018;51.230;7.860;2022-07-09T02:33:45;9.27;;;5.53;;
19733;SDS011;10018;51.230;7.860;2022-07-09T02:36:11;9.47;;;5.47;;
19733;SDS011;10018;51.230;7.860;2022-07-09T02:38:36;7.33;;;5.27;;
19733;SDS011;10018;51.230;7.860;2022-07-09T02:41:02;10.80;;;5.80;;
19733;SDS011;10018;51.230;7.860;2022-07-09T02:43:27;9.73;;;5.87;;
19733;SDS011;10018;51.230;7.860;2022-07-09T02:45:53;6.80;;;5.20;;
19733;SDS011;10018;51.230;7.860;2022-07-09T02:48:21;8.83;;;5.73;;
19733;SDS011;10018;51.230;7.860;2022-07-09T02:50:47;7.77;;;5.67;;
19733;SDS011;10018;51.230;7.860;2022-07-09T02:53:14;10.63;;;5.97;;
19733;SDS011;10018;51.230;7.860;2022-07-09T02:55:39;8.13;;;5.57;;
19733;SDS011;10018;51.230;7.860;2022-07-09T02:58:05;6.03;;;5.10;;
19733;SDS011;10018;51.230;7.860;2022-07-09T03:00:30;9.00;;;6.17;;
19733;SDS011;10018;51.230;7.860;2022-07-09T03:02:56;8.13;;;5.37;;
19733;SDS011;10018;51.230;7.860;2022-07-09T03:05:21;7.93;;;5.50;;
19733;SDS011;10018;51.230;7.860;2022-07-09T03:07:47;8.10;;;5.97;;
19733;SDS011;10018;51.230;7.860;2022-07-09T03:10:13;8.13;;;5.57;;
19733;SDS011;10018;51.230;7.860;2022-07-09T03:12:38;11.90;;;5.87;;
19733;SDS011;10018;51.230;7.860;2022-07-09T03:15:05;9.50;;;5.57;;
19733;SDS011;10018;51.230;7.860;2022-07-09T03:17:31;9.77;;;5.63;;
19733;SDS011;10018;51.230;7.860;2022-07-09T03:19:57;9.67;;;6.17;;
19733;SDS011;10018;51.230;7.860;2022-07-09T03:22:22;7.63;;;5.47;;
19733;SDS011;10018;51.230;7.860;2022-07-09T03:24:48;8.57;;;5.40;;
19733;SDS011;10018;51.230;7.860;2022-07-09T03:27:13;10.83;;;5.83;;
19733;SDS011;10018;51.230;7.860;2022-07-09T03:29:39;8.37;;;6.20;;
19733;SDS011;10018;51.230;7.860;2022-07-09T03:32:05;9.00;;;5.90;;
19733;SDS011;10018;51.230;7.860;2022-07-09T03:34:31;9.47;;;6.27;;
19733;SDS011;10018;51.230;7.860;2022-07-09T03:36:56;7.57;;;6.10;;
19733;SDS011;10018;51.230;7.860;2022-07-09T03:39:22;8.00;;;6.10;;
19733;SDS011;10018;51.230;7.860;2022-07-09T03:41:48;8.43;;;6.23;;
19733;SDS011;10018;51.230;7.860;2022-07-09T03:44:13;8.33;;;6.17;;
19733;SDS011;10018;51.230;7.860;2022-07-09T03:46:39;8.97;;;6.07;;
19733;SDS011;10018;51.230;7.860;2022-07-09T03:49:04;8.77;;;6.23;;
19733;SDS011;10018;51.230;7.860;2022-07-09T03:51:30;10.20;;;6.30;;
19733;SDS011;10018;51.230;7.860;2022-07-09T03:53:55;9.43;;;6.20;;
19733;SDS011;10018;51.230;7.860;2022-07-09T03:56:21;9.07;;;5.97;;
19733;SDS011;10018;51.230;7.860;2022-07-09T03:58:46;13.70;;;7.10;;
19733;SDS011;10018;51.230;7.860;2022-07-09T04:01:12;11.23;;;6.23;;
19733;SDS011;10018;51.230;7.860;2022-07-09T04:03:38;10.23;;;6.87;;
19733;SDS011;10018;51.230;7.860;2022-07-09T04:06:04;11.40;;;5.97;;
19733;SDS011;10018;51.230;7.860;2022-07-09T04:08:29;12.17;;;6.50;;
19733;SDS011;10018;51.230;7.860;2022-07-09T04:10:55;14.27;;;7.10;;
19733;SDS011;10018;51.230;7.860;2022-07-09T04:13:20;12.67;;;6.97;;
19733;SDS011;10018;51.230;7.860;2022-07-09T04:15:46;13.90;;;6.73;;
19733;SDS011;10018;51.230;7.860;2022-07-09T04:18:13;13.67;;;7.17;;
19733;SDS011;10018;51.230;7.860;2022-07-09T04:20:40;13.60;;;7.30;;
19733;SDS011;10018;51.230;7.860;2022-07-09T04:23:06;17.77;;;7.93;;
19733;SDS011;10018;51.230;7.860;2022-07-09T04:25:31;12.37;;;7.67;;
19733;SDS011;10018;51.230;7.860;2022-07-09T04:27:57;11.83;;;8.10;;
19733;SDS011;10018;51.230;7.860;2022-07-09T04:30:24;12.70;;;7.53;;
19733;SDS011;10018;51.230;7.860;2022-07-09T04:32:51;13.60;;;7.43;;
19733;SDS011;10018;51.230;7.860;2022-07-09T04:35:16;11.27;;;7.37;;
19733;SDS011;10018;51.230;7.860;2022-07-09T04:37:42;12.57;;;7.53;;
19733;SDS011;10018;51.230;7.860;2022-07-09T04:40:08;14.37;;;7.43;;
19733;SDS011;10018;51.230;7.860;2022-07-09T04:42:34;10.70;;;6.97;;
19733;SDS011;10018;51.230;7.860;2022-07-09T04:44:59;11.93;;;7.30;;
19733;SDS011;10018;51.230;7.860;2022-07-09T04:47:25;11.23;;;7.33;;
19733;SDS011;10018;51.230;7.860;2022-07-09T04:49:51;14.30;;;7.90;;
19733;SDS011;10018;51.230;7.860;2022-07-09T04:52:16;17.07;;;8.60;;
19733;SDS011;10018;51.230;7.860;2022-07-09T04:54:44;20.03;;;9.77;;
19733;SDS011;10018;51.230;7.860;2022-07-09T04:57:11;20.25;;;10.35;;
19733;SDS011;10018;51.230;7.860;2022-07-09T04:59:37;16.20;;;9.27;;
19733;SDS011;10018;51.230;7.860;2022-07-09T05:02:02;15.60;;;9.13;;
19733;SDS011;10018;51.230;7.860;2022-07-09T05:04:28;14.33;;;7.70;;
19733;SDS011;10018;51.230;7.860;2022-07-09T05:06:55;16.47;;;8.97;;
19733;SDS011;10018;51.230;7.860;2022-07-09T05:09:20;16.10;;;9.17;;
19733;SDS011;10018;51.230;7.860;2022-07-09T05:11:46;18.23;;;9.33;;
19733;SDS011;10018;51.230;7.860;2022-07-09T05:14:12;16.60;;;9.20;;
19733;SDS011;10018;51.230;7.860;2022-07-09T05:16:37;16.17;;;9.37;;
19733;SDS011;10018;51.230;7.860;2022-07-09T05:19:05;17.80;;;10.07;;
19733;SDS011;10018;51.230;7.860;2022-07-09T05:21:30;14.43;;;9.40;;
19733;SDS011;10018;51.230;7.860;2022-07-09T05:23:56;17.50;;;8.67;;
19733;SDS011;10018;51.230;7.860;2022-07-09T05:26:21;18.90;;;9.67;;
19733;SDS011;10018;51.230;7.860;2022-07-09T05:28:47;20.87;;;10.00;;
19733;SDS011;10018;51.230;7.860;2022-07-09T05:31:12;20.73;;;9.97;;
19733;SDS011;10018;51.230;7.860;2022-07-09T05:33:38;19.67;;;10.07;;
19733;SDS011;10018;51.230;7.860;2022-07-09T05:36:03;16.93;;;9.00;;
19733;SDS011;10018;51.230;7.860;2022-07-09T05:38:29;15.97;;;8.17;;
19733;SDS011;10018;51.230;7.860;2022-07-09T05:40:55;14.43;;;8.80;;
19733;SDS011;10018;51.230;7.860;2022-07-09T05:43:22;12.17;;;8.03;;
19733;SDS011;10018;51.230;7.860;2022-07-09T05:45:48;14.43;;;8.57;;
19733;SDS011;10018;51.230;7.860;2022-07-09T05:48:13;13.83;;;8.27;;
19733;SDS011;10018;51.230;7.860;2022-07-09T05:50:39;14.00;;;8.30;;
19733;SDS011;10018;51.230;7.860;2022-07-09T05:53:04;14.73;;;9.47;;
19733;SDS011;10018;51.230;7.860;2022-07-09T05:55:30;16.27;;;8.90;;
19733;SDS011;10018;51.230;7.860;2022-07-09T05:57:55;15.40;;;8.97;;
19733;SDS011;10018;51.230;7.860;2022-07-09T06:00:22;10.67;;;8.27;;
19733;SDS011;10018;51.230;7.860;2022-07-09T06:02:47;12.93;;;8.37;;
19733;SDS011;10018;51.230;7.860;2022-07-09T06:05:13;12.27;;;7.40;;
19733;SDS011;10018;51.230;7.860;2022-07-09T06:07:38;15.37;;;8.10;;
19733;SDS011;10018;51.230;7.860;2022-07-09T06:10:09;14.40;;;8.10;;
19733;SDS011;10018;51.230;7.860;2022-07-09T06:12:37;15.10;;;7.47;;
19733;SDS011;10018;51.230;7.860;2022-07-09T06:15:03;14.40;;;7.60;;
19733;SDS011;10018;51.230;7.860;2022-07-09T06:17:29;20.27;;;9.40;;
19733;SDS011;10018;51.230;7.860;2022-07-09T06:19:54;15.27;;;8.30;;
19733;SDS011;10018;51.230;7.860;2022-07-09T06:22:20;14.83;;;8.00;;
19733;SDS011;10018;51.230;7.860;2022-07-09T06:24:45;10.97;;;6.70;;
19733;SDS011;10018;51.230;7.860;2022-07-09T06:27:11;12.97;;;7.37;;
19733;SDS011;10018;51.230;7.860;2022-07-09T06:29:36;10.20;;;6.67;;
19733;SDS011;10018;51.230;7.860;2022-07-09T06:32:02;13.47;;;7.27;;
19733;SDS011;10018;51.230;7.860;2022-07-09T06:34:28;10.97;;;7.27;;
19733;SDS011;10018;51.230;7.860;2022-07-09T06:36:53;14.47;;;8.00;;
19733;SDS011;10018;51.230;7.860;2022-07-09T06:39:19;12.47;;;8.10;;
19733;SDS011;10018;51.230;7.860;2022-07-09T06:42:06;13.57;;;7.63;;
19733;SDS011;10018;51.230;7.860;2022-07-09T06:44:32;12.80;;;7.47;;
19733;SDS011;10018;51.230;7.860;2022-07-09T06:46:59;14.07;;;9.53;;
19733;SDS011;10018;51.230;7.860;2022-07-09T06:49:24;14.40;;;8.70;;
19733;SDS011;10018;51.230;7.860;2022-07-09T06:51:50;13.03;;;8.77;;
19733;SDS011;10018;51.230;7.860;2022-07-09T06:54:15;13.87;;;8.53;;
19733;SDS011;10018;51.230;7.860;2022-07-09T06:56:41;13.83;;;8.03;;
19733;SDS011;10018;51.230;7.860;2022-07-09T06:59:06;14.17;;;8.30;;
19733;SDS011;10018;51.230;7.860;2022-07-09T07:01:32;14.33;;;7.60;;
19733;SDS011;10018;51.230;7.860;2022-07-09T07:03:57;13.27;;;8.10;;
19733;SDS011;10018;51.230;7.860;2022-07-09T07:06:23;11.90;;;7.90;;
19733;SDS011;10018;51.230;7.860;2022-07-09T07:08:48;14.30;;;8.27;;
19733;SDS011;10018;51.230;7.860;2022-07-09T07:11:14;11.60;;;7.43;;
19733;SDS011;10018;51.230;7.860;2022-07-09T07:13:39;11.40;;;7.20;;
19733;SDS011;10018;51.230;7.860;2022-07-09T07:16:05;11.70;;;6.90;;
19733;SDS011;10018;51.230;7.860;2022-07-09T07:18:31;8.67;;;5.27;;
19733;SDS011;10018;51.230;7.860;2022-07-09T07:20:56;10.47;;;5.50;;
19733;SDS011;10018;51.230;7.860;2022-07-09T07:23:22;7.73;;;3.63;;
19733;SDS011;10018;51.230;7.860;2022-07-09T07:25:47;5.87;;;3.47;;
19733;SDS011;10018;51.230;7.860;2022-07-09T07:28:13;3.50;;;2.50;;
19733;SDS011;10018;51.230;7.860;2022-07-09T07:30:38;5.47;;;2.70;;
19733;SDS011;10018;51.230;7.860;2022-07-09T07:33:04;5.20;;;2.40;;
19733;SDS011;10018;51.230;7.860;2022-07-09T07:35:30;4.97;;;2.60;;
19733;SDS011;10018;51.230;7.860;2022-07-09T07:37:55;3.30;;;2.40;;
19733;SDS011;10018;51.230;7.860;2022-07-09T07:40:24;4.73;;;2.30;;
19733;SDS011;10018;51.230;7.860;2022-07-09T07:42:50;5.30;;;2.30;;
19733;SDS011;10018;51.230;7.860;2022-07-09T07:45:15;5.57;;;2.00;;
19733;SDS011;10018;51.230;7.860;2022-07-09T07:47:41;5.40;;;2.70;;
19733;SDS011;10018;51.230;7.860;2022-07-09T07:50:07;3.77;;;2.57;;
19733;SDS011;10018;51.230;7.860;2022-07-09T07:52:32;4.67;;;2.57;;
19733;SDS011;10018;51.230;7.860;2022-07-09T07:54:58;4.10;;;2.50;;
19733;SDS011;10018;51.230;7.860;2022-07-09T07:57:24;3.43;;;2.63;;
19733;SDS011;10018;51.230;7.860;2022-07-09T07:59:49;4.07;;;2.70;;
19733;SDS011;10018;51.230;7.860;2022-07-09T08:02:15;6.53;;;2.07;;
19733;SDS011;10018;51.230;7.860;2022-07-09T08:04:40;3.47;;;2.13;;
19733;SDS011;10018;51.230;7.860;2022-07-09T08:07:06;3.03;;;1.80;;
19733;SDS011;10018;51.230;7.860;2022-07-09T08:09:31;2.20;;;1.50;;
19733;SDS011;10018;51.230;7.860;2022-07-09T08:11:58;3.33;;;1.60;;
19733;SDS011;10018;51.230;7.860;2022-07-09T08:14:24;1.73;;;1.40;;
19733;SDS011;10018;51.230;7.860;2022-07-09T08:16:50;2.43;;;1.17;;
19733;SDS011;10018;51.230;7.860;2022-07-09T08:19:16;4.77;;;1.50;;
19733;SDS011;10018;51.230;7.860;2022-07-09T08:21:41;2.23;;;1.30;;
19733;SDS011;10018;51.230;7.860;2022-07-09T08:24:07;6.23;;;1.80;;
19733;SDS011;10018;51.230;7.860;2022-07-09T08:26:33;2.60;;;1.33;;
19733;SDS011;10018;51.230;7.860;2022-07-09T08:28:58;5.27;;;1.40;;
19733;SDS011;10018;51.230;7.860;2022-07-09T08:31:24;4.20;;;1.63;;
19733;SDS011;10018;51.230;7.860;2022-07-09T08:33:50;2.77;;;1.73;;
19733;SDS011;10018;51.230;7.860;2022-07-09T08:36:16;1.70;;;1.37;;
19733;SDS011;10018;51.230;7.860;2022-07-09T08:38:42;3.10;;;1.47;;
19733;SDS011;10018;51.230;7.860;2022-07-09T08:41:08;1.50;;;1.00;;
19733;SDS011;10018;51.230;7.860;2022-07-09T08:43:34;1.73;;;1.30;;
19733;SDS011;10018;51.230;7.860;2022-07-09T08:46:01;1.73;;;1.30;;
19733;SDS011;10018;51.230;7.860;2022-07-09T08:48:27;2.40;;;1.50;;
19733;SDS011;10018;51.230;7.860;2022-07-09T08:50:53;2.33;;;1.40;;
19733;SDS011;10018;51.230;7.860;2022-07-09T08:53:20;3.53;;;1.70;;
19733;SDS011;10018;51.230;7.860;2022-07-09T08:55:46;2.23;;;1.60;;
19733;SDS011;10018;51.230;7.860;2022-07-09T08:58:12;3.10;;;1.83;;
19733;SDS011;10018;51.230;7.860;2022-07-09T09:00:38;2.80;;;1.87;;
19733;SDS011;10018;51.230;7.860;2022-07-09T09:03:05;2.33;;;1.60;;
19733;SDS011;10018;51.230;7.860;2022-07-09T09:05:31;2.47;;;1.60;;
19733;SDS011;10018;51.230;7.860;2022-07-09T09:07:56;2.27;;;1.40;;
19733;SDS011;10018;51.230;7.860;2022-07-09T09:10:26;2.07;;;1.30;;
19733;SDS011;10018;51.230;7.860;2022-07-09T09:12:56;3.77;;;1.50;;
19733;SDS011;10018;51.230;7.860;2022-07-09T09:15:23;1.53;;;1.10;;
19733;SDS011;10018;51.230;7.860;2022-07-09T09:17:49;2.00;;;1.30;;
19733;SDS011;10018;51.230;7.860;2022-07-09T09:20:15;1.67;;;1.20;;
19733;SDS011;10018;51.230;7.860;2022-07-09T09:22:46;3.97;;;1.80;;
19733;SDS011;10018;51.230;7.860;2022-07-09T09:25:16;2.23;;;1.57;;
19733;SDS011;10018;51.230;7.860;2022-07-09T09:28:16;2.10;;;1.40;;
19733;SDS011;10018;51.230;7.860;2022-07-09T09:30:40;1.90;;;1.23;;
19733;SDS011;10018;51.230;7.860;2022-07-09T09:33:08;3.50;;;1.30;;
19733;SDS011;10018;51.230;7.860;2022-07-09T09:35:35;1.53;;;1.10;;
19733;SDS011;10018;51.230;7.860;2022-07-09T09:38:06;3.23;;;1.23;;
19733;SDS011;10018;51.230;7.860;2022-07-09T09:40:32;1.87;;;1.43;;
19733;SDS011;10018;51.230;7.860;2022-07-09T09:42:58;2.70;;;1.30;;
19733;SDS011;10018;51.230;7.860;2022-07-09T09:45:26;1.53;;;1.23;;
19733;SDS011;10018;51.230;7.860;2022-07-09T09:47:53;1.50;;;1.07;;
19733;SDS011;10018;51.230;7.860;2022-07-09T09:50:22;3.20;;;1.13;;
19733;SDS011;10018;51.230;7.860;2022-07-09T09:52:50;2.27;;;1.00;;
19733;SDS011;10018;51.230;7.860;2022-07-09T09:55:18;1.63;;;1.10;;
19733;SDS011;10018;51.230;7.860;2022-07-09T09:57:44;2.00;;;1.30;;
19733;SDS011;10018;51.230;7.860;2022-07-09T10:00:11;2.97;;;1.13;;
19733;SDS011;10018;51.230;7.860;2022-07-09T10:02:44;1.50;;;1.00;;
19733;SDS011;10018;51.230;7.860;2022-07-09T10:05:11;1.73;;;1.10;;
19733;SDS011;10018;51.230;7.860;2022-07-09T10:07:37;3.27;;;1.07;;
19733;SDS011;10018;51.230;7.860;2022-07-09T10:10:04;2.73;;;1.10;;
19733;SDS011;10018;51.230;7.860;2022-07-09T10:12:34;2.37;;;1.07;;
19733;SDS011;10018;51.230;7.860;2022-07-09T10:15:03;2.20;;;1.30;;
19733;SDS011;10018;51.230;7.860;2022-07-09T10:17:43;3.50;;;1.30;;
19733;SDS011;10018;51.230;7.860;2022-07-09T10:20:09;2.53;;;1.20;;
19733;SDS011;10018;51.230;7.860;2022-07-09T10:22:37;2.63;;;1.30;;
19733;SDS011;10018;51.230;7.860;2022-07-09T10:25:06;2.00;;;1.10;;
19733;SDS011;10018;51.230;7.860;2022-07-09T10:27:42;2.80;;;1.30;;
19733;SDS011;10018;51.230;7.860;2022-07-09T10:30:08;3.37;;;1.30;;
19733;SDS011;10018;51.230;7.860;2022-07-09T10:32:46;2.87;;;1.40;;
19733;SDS011;10018;51.230;7.860;2022-07-09T10:35:28;2.90;;;1.20;;
19733;SDS011;10018;51.230;7.860;2022-07-09T10:37:53;3.83;;;1.77;;
19733;SDS011;10018;51.230;7.860;2022-07-09T10:40:20;2.80;;;1.30;;
19733;SDS011;10018;51.230;7.860;2022-07-09T10:43:02;5.50;;;1.60;;
19733;SDS011;10018;51.230;7.860;2022-07-09T10:45:28;4.07;;;1.60;;
19733;SDS011;10018;51.230;7.860;2022-07-09T10:48:01;7.67;;;2.17;;
19733;SDS011;10018;51.230;7.860;2022-07-09T10:50:29;4.70;;;2.00;;
19733;SDS011;10018;51.230;7.860;2022-07-09T10:52:56;4.60;;;2.10;;
19733;SDS011;10018;51.230;7.860;2022-07-09T10:55:24;3.77;;;2.10;;
19733;SDS011;10018;51.230;7.860;2022-07-09T10:57:51;4.40;;;2.00;;
19733;SDS011;10018;51.230;7.860;2022-07-09T11:00:19;6.03;;;1.90;;
19733;SDS011;10018;51.230;7.860;2022-07-09T11:02:52;5.43;;;2.20;;
19733;SDS011;10018;51.230;7.860;2022-07-09T11:05:17;4.47;;;2.13;;
19733;SDS011;10018;51.230;7.860;2022-07-09T11:07:43;4.37;;;2.10;;
19733;SDS011;10018;51.230;7.860;2022-07-09T11:10:29;4.73;;;2.30;;
19733;SDS011;10018;51.230;7.860;2022-07-09T11:12:57;4.30;;;2.20;;
19733;SDS011;10018;51.230;7.860;2022-07-09T11:15:25;4.47;;;2.10;;
19733;SDS011;10018;51.230;7.860;2022-07-09T11:17:58;5.13;;;2.30;;
19733;SDS011;10018;51.230;7.860;2022-07-09T11:20:27;3.10;;;1.87;;
19733;SDS011;10018;51.230;7.860;2022-07-09T11:22:53;4.20;;;2.30;;
19733;SDS011;10018;51.230;7.860;2022-07-09T11:25:24;5.27;;;2.17;;
19733;SDS011;10018;51.230;7.860;2022-07-09T11:27:51;3.63;;;2.00;;
19733;SDS011;10018;51.230;7.860;2022-07-09T11:30:16;4.50;;;2.30;;
19733;SDS011;10018;51.230;7.860;2022-07-09T11:32:42;4.90;;;2.17;;
19733;SDS011;10018;51.230;7.860;2022-07-09T11:35:09;6.80;;;2.00;;
19733;SDS011;10018;51.230;7.860;2022-07-09T11:37:35;4.47;;;2.37;;
19733;SDS011;10018;51.230;7.860;2022-07-09T11:40:00;3.80;;;2.10;;
19733;SDS011;10018;51.230;7.860;2022-07-09T11:42:26;4.70;;;2.20;;
19733;SDS011;10018;51.230;7.860;2022-07-09T11:44:55;4.90;;;2.03;;
19733;SDS011;10018;51.230;7.860;2022-07-09T11:47:34;4.20;;;2.13;;
19733;SDS011;10018;51.230;7.860;2022-07-09T11:52:34;6.10;;;2.67;;
19733;SDS011;10018;51.230;7.860;2022-07-09T11:55:00;4.97;;;2.27;;
19733;SDS011;10018;51.230;7.860;2022-07-09T11:57:27;4.03;;;2.50;;
19733;SDS011;10018;51.230;7.860;2022-07-09T11:59:53;3.90;;;2.17;;
19733;SDS011;10018;51.230;7.860;2022-07-09T12:02:23;5.33;;;2.37;;
19733;SDS011;10018;51.230;7.860;2022-07-09T12:04:56;5.47;;;2.33;;
19733;SDS011;10018;51.230;7.860;2022-07-09T12:07:22;4.27;;;2.50;;
19733;SDS011;10018;51.230;7.860;2022-07-09T12:10:04;3.80;;;2.10;;
19733;SDS011;10018;51.230;7.860;2022-07-09T12:12:35;3.80;;;2.27;;
19733;SDS011;10018;51.230;7.860;2022-07-09T12:15:01;5.27;;;2.37;;
19733;SDS011;10018;51.230;7.860;2022-07-09T12:17:28;4.33;;;2.13;;
19733;SDS011;10018;51.230;7.860;2022-07-09T12:19:56;5.47;;;2.80;;
19733;SDS011;10018;51.230;7.860;2022-07-09T12:22:22;5.07;;;2.30;;
19733;SDS011;10018;51.230;7.860;2022-07-09T12:24:48;5.83;;;2.50;;
19733;SDS011;10018;51.230;7.860;2022-07-09T12:27:15;4.13;;;2.30;;
19733;SDS011;10018;51.230;7.860;2022-07-09T12:29:41;4.17;;;2.50;;
19733;SDS011;10018;51.230;7.860;2022-07-09T12:32:07;3.97;;;2.43;;
19733;SDS011;10018;51.230;7.860;2022-07-09T12:34:33;4.67;;;2.77;;
19733;SDS011;10018;51.230;7.860;2022-07-09T12:37:00;4.13;;;2.70;;
19733;SDS011;10018;51.230;7.860;2022-07-09T12:39:25;4.63;;;3.00;;
19733;SDS011;10018;51.230;7.860;2022-07-09T12:41:51;4.47;;;2.80;;
19733;SDS011;10018;51.230;7.860;2022-07-09T12:44:17;5.60;;;3.33;;
19733;SDS011;10018;51.230;7.860;2022-07-09T12:46:42;4.70;;;2.70;;
19733;SDS011;10018;51.230;7.860;2022-07-09T12:49:08;4.97;;;2.67;;
19733;SDS011;10018;51.230;7.860;2022-07-09T12:51:33;5.00;;;2.50;;
19733;SDS011;10018;51.230;7.860;2022-07-09T12:53:59;6.63;;;2.60;;
19733;SDS011;10018;51.230;7.860;2022-07-09T12:56:25;4.97;;;2.63;;
19733;SDS011;10018;51.230;7.860;2022-07-09T12:58:51;4.77;;;2.67;;
19733;SDS011;10018;51.230;7.860;2022-07-09T13:01:17;3.97;;;2.60;;
19733;SDS011;10018;51.230;7.860;2022-07-09T13:03:42;5.30;;;2.90;;
19733;SDS011;10018;51.230;7.860;2022-07-09T13:06:08;3.63;;;2.70;;
19733;SDS011;10018;51.230;7.860;2022-07-09T13:08:53;3.73;;;2.67;;
19733;SDS011;10018;51.230;7.860;2022-07-09T13:11:19;4.20;;;2.97;;
19733;SDS011;10018;51.230;7.860;2022-07-09T13:13:45;5.03;;;3.00;;
19733;SDS011;10018;51.230;7.860;2022-07-09T13:16:11;3.77;;;3.00;;
19733;SDS011;10018;51.230;7.860;2022-07-09T13:18:37;5.20;;;3.30;;
19733;SDS011;10018;51.230;7.860;2022-07-09T13:21:02;5.30;;;3.00;;
19733;SDS011;10018;51.230;7.860;2022-07-09T13:23:28;5.47;;;3.30;;
19733;SDS011;10018;51.230;7.860;2022-07-09T13:25:53;4.87;;;3.33;;
19733;SDS011;10018;51.230;7.860;2022-07-09T13:28:19;4.20;;;3.10;;
19733;SDS011;10018;51.230;7.860;2022-07-09T13:30:44;7.40;;;3.20;;
19733;SDS011;10018;51.230;7.860;2022-07-09T13:33:10;4.43;;;3.10;;
19733;SDS011;10018;51.230;7.860;2022-07-09T13:35:35;5.43;;;3.10;;
19733;SDS011;10018;51.230;7.860;2022-07-09T13:38:02;5.13;;;3.10;;
19733;SDS011;10018;51.230;7.860;2022-07-09T13:40:28;5.50;;;3.50;;
19733;SDS011;10018;51.230;7.860;2022-07-09T13:42:53;5.13;;;3.60;;
19733;SDS011;10018;51.230;7.860;2022-07-09T13:45:19;6.93;;;3.73;;
19733;SDS011;10018;51.230;7.860;2022-07-09T13:47:44;6.43;;;4.03;;
19733;SDS011;10018;51.230;7.860;2022-07-09T13:50:10;4.60;;;3.43;;
19733;SDS011;10018;51.230;7.860;2022-07-09T13:52:35;7.43;;;3.50;;
19733;SDS011;10018;51.230;7.860;2022-07-09T13:55:01;5.77;;;3.60;;
19733;SDS011;10018;51.230;7.860;2022-07-09T13:57:27;5.00;;;3.63;;
19733;SDS011;10018;51.230;7.860;2022-07-09T13:59:52;6.13;;;3.50;;
19733;SDS011;10018;51.230;7.860;2022-07-09T14:02:18;4.97;;;3.60;;
19733;SDS011;10018;51.230;7.860;2022-07-09T14:04:43;5.90;;;3.73;;
19733;SDS011;10018;51.230;7.860;2022-07-09T14:07:09;5.50;;;3.40;;
19733;SDS011;10018;51.230;7.860;2022-07-09T14:09:34;6.37;;;3.80;;
19733;SDS011;10018;51.230;7.860;2022-07-09T14:12:00;4.73;;;3.70;;
19733;SDS011;10018;51.230;7.860;2022-07-09T14:14:25;5.10;;;4.20;;
19733;SDS011;10018;51.230;7.860;2022-07-09T14:16:51;7.27;;;4.30;;
19733;SDS011;10018;51.230;7.860;2022-07-09T14:19:16;5.47;;;4.23;;
19733;SDS011;10018;51.230;7.860;2022-07-09T14:21:42;7.57;;;4.60;;
19733;SDS011;10018;51.230;7.860;2022-07-09T14:24:08;5.27;;;4.20;;
19733;SDS011;10018;51.230;7.860;2022-07-09T14:26:34;5.30;;;4.60;;
19733;SDS011;10018;51.230;7.860;2022-07-09T14:28:59;6.00;;;4.70;;
19733;SDS011;10018;51.230;7.860;2022-07-09T14:31:25;7.47;;;4.93;;
19733;SDS011;10018;51.230;7.860;2022-07-09T14:33:50;6.23;;;5.60;;
19733;SDS011;10018;51.230;7.860;2022-07-09T14:36:16;7.57;;;6.07;;
19733;SDS011;10018;51.230;7.860;2022-07-09T14:38:42;6.67;;;5.53;;
19733;SDS011;10018;51.230;7.860;2022-07-09T14:41:19;7.23;;;5.77;;